Time;durP1;ratioP1;P1;durP2;ratioP2;P2;SDS_P1;SDS_P2;PMS_P1;PMS_P2;Temp;Humidity;BMP_temperature;BMP_pressure;BME280_temperature;BME280_humidity;BME280_pressure;Samples;Min_cycle;Max_cycle;Signal;HPM_P1;HPM_P2
2023/03/01 00:00:01;;;;;;;8.78;4.80;;;;;;;;;;346900;28;843;-79
2023/03/01 00:00:12;;;;;;;9.27;5.57;;;;;;;;;;346849;28;879;-79
2023/03/01 00:00:22;;;;;;;9.60;6.10;;;;;;;;;;346773;28;811;-79
2023/03/01 00:00:33;;;;;;;11.07;6.13;;;;;;;;;;345949;28;918;-80
2023/03/01 00:00:46;;;;;;;10.90;5.85;;;;;;;;;;345483;28;1215;-80
2023/03/01 00:01:07;;;;;;;10.82;5.50;;;;;;;;;;344320;28;947;-79
2023/03/01 00:01:20;;;;;;;9.48;5.40;;;;;;;;;;344274;28;942;-79
2023/03/01 00:01:31;;;;;;;10.85;6.30;;;;;;;;;;344223;28;1442;-79
2023/03/01 00:01:41;;;;;;;10.45;6.35;;;;;;;;;;344090;28;1520;-79
2023/03/01 00:01:55;;;;;;;9.73;6.50;;;;;;;;;;344303;28;875;-88
2023/03/01 00:02:06;;;;;;;8.93;5.75;;;;;;;;;;344124;28;1368;-79
2023/03/01 00:02:16;;;;;;;9.20;5.43;;;;;;;;;;342929;28;856;-80
2023/03/01 00:02:27;;;;;;;9.65;5.40;;;;;;;;;;342598;28;1340;-79
2023/03/01 00:02:37;;;;;;;9.37;5.40;;;;;;;;;;342744;28;1318;-80
2023/03/01 00:02:48;;;;;;;9.18;5.43;;;;;;;;;;342944;28;867;-79
2023/03/01 00:02:59;;;;;;;8.82;5.60;;;;;;;;;;342855;28;1540;-86
2023/03/01 00:03:09;;;;;;;8.70;5.63;;;;;;;;;;342759;28;1417;-79
2023/03/01 00:03:20;;;;;;;8.77;5.72;;;;;;;;;;344228;28;1407;-79
2023/03/01 00:03:31;;;;;;;10.37;5.97;;;;;;;;;;343979;28;1305;-79
2023/03/01 00:03:42;;;;;;;10.10;5.65;;;;;;;;;;345478;28;918;-79
2023/03/01 00:03:52;;;;;;;9.90;5.43;;;;;;;;;;345545;28;977;-79
2023/03/01 00:04:04;;;;;;;8.23;4.90;;;;;;;;;;345250;28;1404;-82
2023/03/01 00:04:14;;;;;;;9.68;5.38;;;;;;;;;;345596;28;906;-79
2023/03/01 00:04:25;;;;;;;11.40;5.88;;;;;;;;;;345273;28;1392;-79
2023/03/01 00:04:36;;;;;;;11.77;6.33;;;;;;;;;;344244;28;828;-79
2023/03/01 00:04:46;;;;;;;10.77;6.05;;;;;;;;;;344241;28;886;-79
2023/03/01 00:04:57;;;;;;;10.23;5.88;;;;;;;;;;345457;28;1249;-79
2023/03/01 00:05:08;;;;;;;9.88;5.28;;;;;;;;;;345530;28;887;-79
2023/03/01 00:05:19;;;;;;;11.02;5.50;;;;;;;;;;345642;28;918;-87
2023/03/01 00:05:30;;;;;;;10.13;5.20;;;;;;;;;;345287;28;1464;-79
2023/03/01 00:05:45;;;;;;;9.82;5.66;;;;;;;;;;345506;28;843;-86
2023/03/01 00:05:56;;;;;;;9.90;5.47;;;;;;;;;;344344;28;879;-79
2023/03/01 00:06:06;;;;;;;9.07;5.28;;;;;;;;;;345570;28;985;-79
2023/03/01 00:06:17;;;;;;;8.03;5.23;;;;;;;;;;345517;28;1378;-79
2023/03/01 00:06:28;;;;;;;8.03;5.30;;;;;;;;;;345398;28;886;-87
2023/03/01 00:06:38;;;;;;;8.27;5.35;;;;;;;;;;345396;28;1373;-79
2023/03/01 00:06:49;;;;;;;8.77;5.37;;;;;;;;;;344163;28;1421;-79
2023/03/01 00:07:00;;;;;;;8.68;5.35;;;;;;;;;;346873;28;1298;-79
2023/03/01 00:07:10;;;;;;;9.40;5.65;;;;;;;;;;345506;28;891;-79
2023/03/01 00:07:21;;;;;;;11.25;5.90;;;;;;;;;;345278;28;937;-79
2023/03/01 00:07:31;;;;;;;12.07;5.83;;;;;;;;;;345333;28;978;-79
2023/03/01 00:07:42;;;;;;;10.83;5.47;;;;;;;;;;345511;28;887;-88
2023/03/01 00:07:53;;;;;;;9.13;5.20;;;;;;;;;;345624;28;836;-79
2023/03/01 00:08:03;;;;;;;7.95;4.82;;;;;;;;;;345581;28;961;-83
2023/03/01 00:08:14;;;;;;;7.63;4.93;;;;;;;;;;345574;28;879;-79
2023/03/01 00:08:25;;;;;;;8.83;5.07;;;;;;;;;;345379;28;796;-79
2023/03/01 00:08:35;;;;;;;10.32;5.18;;;;;;;;;;345554;28;907;-79
2023/03/01 00:08:46;;;;;;;10.68;5.18;;;;;;;;;;342919;28;895;-80
2023/03/01 00:08:56;;;;;;;9.35;5.30;;;;;;;;;;343785;28;847;-81
2023/03/01 00:09:07;;;;;;;8.63;5.20;;;;;;;;;;343791;28;789;-86
2023/03/01 00:09:17;;;;;;;9.25;5.60;;;;;;;;;;344174;28;815;-79
2023/03/01 00:09:28;;;;;;;9.53;5.67;;;;;;;;;;344013;28;844;-79
2023/03/01 00:09:39;;;;;;;8.88;5.47;;;;;;;;;;344155;28;867;-79
2023/03/01 00:09:50;;;;;;;8.70;5.18;;;;;;;;;;345645;28;835;-79
2023/03/01 00:10:01;;;;;;;9.20;5.35;;;;;;;;;;345659;28;911;-79
2023/03/01 00:10:11;;;;;;;9.52;5.78;;;;;;;;;;345554;28;935;-79
2023/03/01 00:10:22;;;;;;;8.87;5.57;;;;;;;;;;345393;28;1262;-79
2023/03/01 00:10:32;;;;;;;8.65;5.32;;;;;;;;;;346589;28;1592;-79
2023/03/01 00:10:43;;;;;;;8.07;4.97;;;;;;;;;;346879;28;784;-80
2023/03/01 00:11:11;;;;;;;10.00;5.28;;;;;;;;;;345558;28;1457;-80
2023/03/01 00:11:24;;;;;;;10.82;5.25;;;;;;;;;;344164;28;1440;-79
2023/03/01 00:11:35;;;;;;;9.07;5.50;;;;;;;;;;344019;28;1357;-86
2023/03/01 00:11:45;;;;;;;8.90;5.33;;;;;;;;;;344268;28;878;-79
2023/03/01 00:11:56;;;;;;;8.30;5.47;;;;;;;;;;345641;28;844;-79
2023/03/01 00:12:06;;;;;;;8.67;5.27;;;;;;;;;;345481;28;1373;-79
2023/03/01 00:12:17;;;;;;;8.93;5.30;;;;;;;;;;345566;28;918;-79
2023/03/01 00:12:27;;;;;;;8.50;4.97;;;;;;;;;;346733;28;879;-79
2023/03/01 00:12:38;;;;;;;8.18;4.95;;;;;;;;;;346834;28;811;-79
2023/03/01 00:12:49;;;;;;;10.52;5.57;;;;;;;;;;347027;28;906;-79
2023/03/01 00:13:00;;;;;;;12.10;6.17;;;;;;;;;;345584;28;1491;-89
2023/03/01 00:13:10;;;;;;;12.25;6.40;;;;;;;;;;345591;28;913;-79
2023/03/01 00:13:21;;;;;;;10.52;6.10;;;;;;;;;;345608;28;886;-84
2023/03/01 00:13:31;;;;;;;9.40;5.93;;;;;;;;;;343945;28;1539;-79
2023/03/01 00:13:42;;;;;;;10.20;5.78;;;;;;;;;;345475;28;894;-80
2023/03/01 00:13:54;;;;;;;9.07;5.28;;;;;;;;;;345666;28;938;-79
2023/03/01 00:14:06;;;;;;;8.13;4.85;;;;;;;;;;345440;28;1317;-88
2023/03/01 00:14:17;;;;;;;7.43;4.80;;;;;;;;;;345604;28;855;-79
2023/03/01 00:14:27;;;;;;;8.43;5.28;;;;;;;;;;345311;28;910;-79
2023/03/01 00:14:38;;;;;;;9.37;5.80;;;;;;;;;;345471;28;1368;-80
2023/03/01 00:14:48;;;;;;;9.57;5.85;;;;;;;;;;345199;28;1422;-79
2023/03/01 00:14:59;;;;;;;9.60;5.77;;;;;;;;;;344219;28;1507;-79
2023/03/01 00:15:09;;;;;;;9.60;5.80;;;;;;;;;;345504;28;1546;-80
2023/03/01 00:15:20;;;;;;;9.93;6.00;;;;;;;;;;344189;28;1358;-79
2023/03/01 00:15:31;;;;;;;10.13;6.13;;;;;;;;;;343866;28;1513;-79
2023/03/01 00:15:43;;;;;;;9.40;5.60;;;;;;;;;;343947;28;1321;-79
2023/03/01 00:15:53;;;;;;;8.65;5.35;;;;;;;;;;344257;28;851;-79
2023/03/01 00:16:05;;;;;;;9.02;5.43;;;;;;;;;;342828;28;1413;-87
2023/03/01 00:16:18;;;;;;;9.30;5.80;;;;;;;;;;344217;28;1456;-79
2023/03/01 00:16:30;;;;;;;9.13;5.53;;;;;;;;;;343826;28;1472;-79
2023/03/01 00:16:41;;;;;;;9.38;5.40;;;;;;;;;;345485;28;835;-79
2023/03/01 00:16:51;;;;;;;10.18;5.32;;;;;;;;;;345631;28;954;-79
2023/03/01 00:17:02;;;;;;;9.25;4.90;;;;;;;;;;345520;28;1536;-79
2023/03/01 00:17:12;;;;;;;8.90;5.30;;;;;;;;;;345553;28;788;-80
2023/03/01 00:17:23;;;;;;;9.07;5.65;;;;;;;;;;345483;28;1591;-79
2023/03/01 00:17:37;;;;;;;9.83;6.17;;;;;;;;;;345144;28;1393;-79
2023/03/01 00:17:48;;;;;;;8.43;5.53;;;;;;;;;;346895;28;1452;-79
2023/03/01 00:17:59;;;;;;;9.50;5.70;;;;;;;;;;345552;28;1360;-81
2023/03/01 00:18:10;;;;;;;10.77;5.90;;;;;;;;;;345576;28;887;-80
2023/03/01 00:18:22;;;;;;;12.57;6.00;;;;;;;;;;344280;28;950;-82
2023/03/01 00:18:32;;;;;;;11.30;5.95;;;;;;;;;;345264;28;855;-79
2023/03/01 00:18:43;;;;;;;11.67;6.17;;;;;;;;;;345440;28;1922;-86
2023/03/01 00:18:55;;;;;;;11.70;5.90;;;;;;;;;;345515;28;1422;-79
2023/03/01 00:19:09;;;;;;;10.52;5.35;;;;;;;;;;344225;28;918;-88
2023/03/01 00:19:20;;;;;;;9.23;5.20;;;;;;;;;;344188;28;1578;-79
2023/03/01 00:19:32;;;;;;;9.27;5.18;;;;;;;;;;343689;28;1370;-80
2023/03/01 00:19:42;;;;;;;7.97;5.25;;;;;;;;;;344254;28;922;-79
2023/03/01 00:19:53;;;;;;;8.40;5.03;;;;;;;;;;344307;28;878;-80
2023/03/01 00:20:07;;;;;;;9.23;4.90;;;;;;;;;;344090;28;1646;-85
2023/03/01 00:20:18;;;;;;;10.73;5.60;;;;;;;;;;344289;28;946;-79
2023/03/01 00:20:29;;;;;;;9.48;5.63;;;;;;;;;;343832;28;1439;-79
2023/03/01 00:20:40;;;;;;;8.47;5.37;;;;;;;;;;346629;28;1229;-82
2023/03/01 00:20:52;;;;;;;7.35;4.68;;;;;;;;;;346968;28;887;-79
2023/03/01 00:21:04;;;;;;;7.32;4.80;;;;;;;;;;348088;28;1368;-80
2023/03/01 00:21:15;;;;;;;9.02;5.25;;;;;;;;;;346964;28;929;-79
2023/03/01 00:21:25;;;;;;;9.48;5.53;;;;;;;;;;346923;28;886;-79
2023/03/01 00:21:36;;;;;;;9.70;5.40;;;;;;;;;;345024;28;1331;-89
2023/03/01 00:21:48;;;;;;;8.57;4.97;;;;;;;;;;344288;28;949;-79
2023/03/01 00:21:59;;;;;;;8.77;5.10;;;;;;;;;;345469;28;1540;-79
2023/03/01 00:22:09;;;;;;;9.50;4.97;;;;;;;;;;345060;28;1428;-79
2023/03/01 00:22:20;;;;;;;10.35;5.30;;;;;;;;;;346863;28;1389;-79
2023/03/01 00:22:30;;;;;;;9.80;5.23;;;;;;;;;;346431;28;1388;-82
2023/03/01 00:22:41;;;;;;;8.85;5.53;;;;;;;;;;346800;28;1401;-79
2023/03/01 00:22:52;;;;;;;9.02;5.63;;;;;;;;;;345505;28;1407;-79
2023/03/01 00:23:03;;;;;;;9.27;5.43;;;;;;;;;;342856;28;1546;-79
2023/03/01 00:23:14;;;;;;;8.63;5.38;;;;;;;;;;344124;28;1412;-79
2023/03/01 00:23:24;;;;;;;8.38;4.90;;;;;;;;;;344247;28;831;-79
2023/03/01 00:23:35;;;;;;;8.13;4.77;;;;;;;;;;345064;28;1399;-87
2023/03/01 00:23:45;;;;;;;8.43;4.65;;;;;;;;;;345534;28;1536;-80
2023/03/01 00:23:56;;;;;;;7.90;4.80;;;;;;;;;;345641;28;788;-79
2023/03/01 00:24:06;;;;;;;7.78;4.63;;;;;;;;;;342682;28;1223;-80
2023/03/01 00:24:17;;;;;;;7.83;4.63;;;;;;;;;;345522;28;1372;-79
2023/03/01 00:24:27;;;;;;;8.17;4.73;;;;;;;;;;344082;28;1531;-79
2023/03/01 00:24:38;;;;;;;8.30;5.03;;;;;;;;;;343717;28;1270;-88
2023/03/01 00:24:48;;;;;;;7.75;4.78;;;;;;;;;;344295;28;847;-79
2023/03/01 00:24:59;;;;;;;7.88;5.00;;;;;;;;;;344298;28;808;-83
2023/03/01 00:25:10;;;;;;;8.43;5.40;;;;;;;;;;345281;28;1263;-80
2023/03/01 00:25:21;;;;;;;10.25;5.72;;;;;;;;;;346869;28;1239;-80
2023/03/01 00:25:31;;;;;;;10.95;5.65;;;;;;;;;;346605;28;929;-79
2023/03/01 00:25:42;;;;;;;11.52;5.13;;;;;;;;;;345447;28;1538;-79
2023/03/01 00:25:53;;;;;;;9.85;4.60;;;;;;;;;;344125;28;1249;-79
2023/03/01 00:26:08;;;;;;;8.38;4.35;;;;;;;;;;345564;28;815;-85
2023/03/01 00:26:20;;;;;;;8.02;4.75;;;;;;;;;;348268;28;1428;-79
2023/03/01 00:26:30;;;;;;;8.15;5.00;;;;;;;;;;346545;28;1435;-79
2023/03/01 00:26:41;;;;;;;8.38;5.03;;;;;;;;;;344138;28;816;-79
2023/03/01 00:26:58;;;;;;;8.27;4.97;;;;;;;;;;344193;28;958;-79
2023/03/01 00:27:08;;;;;;;7.80;4.50;;;;;;;;;;346885;28;937;-79
2023/03/01 00:27:19;;;;;;;8.57;4.70;;;;;;;;;;346938;28;887;-79
2023/03/01 00:27:30;;;;;;;9.73;5.00;;;;;;;;;;344052;28;1303;-79
2023/03/01 00:27:41;;;;;;;9.80;5.07;;;;;;;;;;344102;28;1274;-79
2023/03/01 00:27:51;;;;;;;11.80;5.27;;;;;;;;;;342708;28;1409;-79
2023/03/01 00:28:04;;;;;;;10.93;5.83;;;;;;;;;;342969;28;843;-79
2023/03/01 00:28:15;;;;;;;11.38;6.32;;;;;;;;;;342834;28;945;-79
2023/03/01 00:28:26;;;;;;;8.98;5.45;;;;;;;;;;344064;28;1510;-79
2023/03/01 00:28:36;;;;;;;9.00;5.13;;;;;;;;;;343909;28;883;-79
2023/03/01 00:28:47;;;;;;;8.57;4.93;;;;;;;;;;344234;28;871;-79
2023/03/01 00:28:58;;;;;;;8.57;5.10;;;;;;;;;;344292;28;910;-79
2023/03/01 00:29:08;;;;;;;8.57;5.15;;;;;;;;;;344072;28;1498;-79
2023/03/01 00:29:19;;;;;;;9.63;5.40;;;;;;;;;;342918;28;812;-79
2023/03/01 00:29:30;;;;;;;9.27;5.28;;;;;;;;;;342539;28;1429;-79
2023/03/01 00:29:40;;;;;;;9.27;5.23;;;;;;;;;;343489;28;1214;-79
2023/03/01 00:29:51;;;;;;;9.02;5.15;;;;;;;;;;345414;28;1438;-80
2023/03/01 00:30:02;;;;;;;9.32;5.00;;;;;;;;;;344103;28;1589;-79
2023/03/01 00:30:14;;;;;;;8.98;5.12;;;;;;;;;;344207;28;977;-81
2023/03/01 00:30:25;;;;;;;8.73;4.80;;;;;;;;;;344167;28;792;-79
2023/03/01 00:30:35;;;;;;;8.43;4.80;;;;;;;;;;343788;28;1437;-79
2023/03/01 00:30:46;;;;;;;9.55;4.82;;;;;;;;;;342774;28;1538;-79
2023/03/01 00:30:56;;;;;;;10.40;5.10;;;;;;;;;;344118;28;1354;-79
2023/03/01 00:31:11;;;;;;;10.60;4.93;;;;;;;;;;344174;28;807;-80
2023/03/01 00:31:29;;;;;;;9.05;4.93;;;;;;;;;;344062;28;1650;-81
2023/03/01 00:31:39;;;;;;;8.45;5.43;;;;;;;;;;343890;28;839;-79
2023/03/01 00:31:50;;;;;;;9.20;5.40;;;;;;;;;;345313;28;1397;-79
2023/03/01 00:32:00;;;;;;;9.87;5.53;;;;;;;;;;344284;28;894;-79
2023/03/01 00:32:11;;;;;;;9.40;5.00;;;;;;;;;;344120;28;1408;-80
2023/03/01 00:32:21;;;;;;;8.77;5.20;;;;;;;;;;345461;28;1417;-79
2023/03/01 00:32:33;;;;;;;7.93;5.13;;;;;;;;;;346782;28;1365;-85
2023/03/01 00:32:43;;;;;;;8.20;5.30;;;;;;;;;;346918;28;906;-79
2023/03/01 00:32:53;;;;;;;8.90;5.13;;;;;;;;;;345477;28;1366;-79
2023/03/01 00:33:04;;;;;;;9.20;5.18;;;;;;;;;;344200;28;977;-84
2023/03/01 00:33:15;;;;;;;9.57;5.37;;;;;;;;;;344245;28;902;-79
2023/03/01 00:33:26;;;;;;;9.45;5.55;;;;;;;;;;344201;28;859;-78
2023/03/01 00:33:37;;;;;;;9.60;5.53;;;;;;;;;;343853;28;1395;-80
2023/03/01 00:33:47;;;;;;;9.40;5.68;;;;;;;;;;342924;28;855;-79
2023/03/01 00:34:00;;;;;;;9.43;5.80;;;;;;;;;;342945;28;898;-79
2023/03/01 00:34:11;;;;;;;9.05;5.60;;;;;;;;;;344088;28;1460;-79
2023/03/01 00:34:21;;;;;;;8.65;5.25;;;;;;;;;;344171;28;918;-79
2023/03/01 00:34:32;;;;;;;9.90;5.30;;;;;;;;;;344191;28;831;-79
2023/03/01 00:34:54;;;;;;;10.02;5.47;;;;;;;;;;343937;28;933;-80
2023/03/01 00:35:05;;;;;;;9.43;5.25;;;;;;;;;;344191;28;945;-86
2023/03/01 00:35:16;;;;;;;9.23;5.40;;;;;;;;;;344262;28;969;-80
2023/03/01 00:35:26;;;;;;;10.20;5.70;;;;;;;;;;344069;28;1388;-79
2023/03/01 00:35:36;;;;;;;8.57;5.32;;;;;;;;;;343886;28;1513;-81
2023/03/01 00:35:48;;;;;;;9.27;5.17;;;;;;;;;;345500;28;1472;-79
2023/03/01 00:36:01;;;;;;;8.90;5.15;;;;;;;;;;345569;28;875;-86
2023/03/01 00:36:13;;;;;;;8.85;5.32;;;;;;;;;;345088;28;1294;-79
2023/03/01 00:36:29;;;;;;;8.45;5.15;;;;;;;;;;345507;28;862;-79
2023/03/01 00:36:39;;;;;;;7.32;5.12;;;;;;;;;;343237;28;1305;-79
2023/03/01 00:36:50;;;;;;;7.87;5.13;;;;;;;;;;342901;28;813;-79
2023/03/01 00:37:05;;;;;;;7.70;5.10;;;;;;;;;;342494;28;815;-79
2023/03/01 00:37:17;;;;;;;9.75;5.93;;;;;;;;;;342796;28;926;-79
2023/03/01 00:37:27;;;;;;;8.95;5.70;;;;;;;;;;342711;28;1315;-79
2023/03/01 00:37:40;;;;;;;9.10;5.87;;;;;;;;;;342523;28;1332;-79
2023/03/01 00:37:57;;;;;;;8.73;5.53;;;;;;;;;;342890;28;875;-79
2023/03/01 00:38:08;;;;;;;9.82;5.75;;;;;;;;;;344174;28;875;-79
2023/03/01 00:38:18;;;;;;;8.82;5.43;;;;;;;;;;345320;28;1299;-79
2023/03/01 00:38:29;;;;;;;7.57;4.93;;;;;;;;;;346856;28;1357;-79
2023/03/01 00:38:41;;;;;;;8.77;4.88;;;;;;;;;;343868;28;1977;-79
2023/03/01 00:38:52;;;;;;;9.32;4.97;;;;;;;;;;344192;28;965;-79
2023/03/01 00:39:04;;;;;;;9.73;5.47;;;;;;;;;;345464;28;1459;-86
2023/03/01 00:39:14;;;;;;;9.40;5.72;;;;;;;;;;345563;28;919;-79
2023/03/01 00:39:26;;;;;;;8.88;5.60;;;;;;;;;;344090;28;1516;-84
2023/03/01 00:39:36;;;;;;;9.10;5.60;;;;;;;;;;343783;28;1531;-79
2023/03/01 00:39:47;;;;;;;8.80;5.53;;;;;;;;;;344218;28;1381;-79
2023/03/01 00:39:57;;;;;;;9.97;5.80;;;;;;;;;;344224;28;906;-79
2023/03/01 00:40:10;;;;;;;8.98;5.65;;;;;;;;;;344048;28;1546;-79
2023/03/01 00:40:20;;;;;;;9.20;5.60;;;;;;;;;;346911;28;926;-79
2023/03/01 00:40:33;;;;;;;10.02;5.63;;;;;;;;;;344073;28;1272;-79
2023/03/01 00:40:43;;;;;;;10.40;5.60;;;;;;;;;;342528;28;1334;-79
2023/03/01 00:40:55;;;;;;;9.60;5.43;;;;;;;;;;342889;28;855;-79
2023/03/01 00:41:06;;;;;;;8.63;5.57;;;;;;;;;;344098;28;922;-79
2023/03/01 00:41:18;;;;;;;8.38;5.65;;;;;;;;;;344092;28;1292;-79
2023/03/01 00:41:28;;;;;;;9.48;5.90;;;;;;;;;;344222;28;914;-79
2023/03/01 00:41:40;;;;;;;10.57;5.80;;;;;;;;;;343858;28;1354;-79
2023/03/01 00:41:50;;;;;;;11.93;5.60;;;;;;;;;;342917;28;942;-79
2023/03/01 00:42:01;;;;;;;11.63;5.43;;;;;;;;;;342840;28;801;-79
2023/03/01 00:42:11;;;;;;;10.27;5.20;;;;;;;;;;342833;28;1201;-80
2023/03/01 00:42:23;;;;;;;9.63;5.27;;;;;;;;;;344057;28;1535;-79
2023/03/01 00:42:33;;;;;;;8.90;5.13;;;;;;;;;;344202;28;927;-81
2023/03/01 00:42:44;;;;;;;9.03;5.23;;;;;;;;;;343835;28;1500;-79
2023/03/01 00:42:55;;;;;;;9.27;5.47;;;;;;;;;;344195;28;855;-79
2023/03/01 00:43:05;;;;;;;9.38;5.75;;;;;;;;;;344001;28;1524;-79
2023/03/01 00:43:16;;;;;;;10.10;6.18;;;;;;;;;;344249;28;997;-84
2023/03/01 00:43:26;;;;;;;10.00;5.73;;;;;;;;;;344200;28;816;-79
2023/03/01 00:43:37;;;;;;;10.75;6.20;;;;;;;;;;345367;28;1413;-79
2023/03/01 00:43:48;;;;;;;9.85;5.57;;;;;;;;;;344172;28;1581;-79
2023/03/01 00:43:59;;;;;;;9.23;5.88;;;;;;;;;;344171;28;1441;-79
2023/03/01 00:44:11;;;;;;;9.32;5.85;;;;;;;;;;344117;28;843;-79
2023/03/01 00:44:22;;;;;;;9.45;6.13;;;;;;;;;;343788;28;855;-79
2023/03/01 00:44:34;;;;;;;9.48;5.75;;;;;;;;;;342851;28;1480;-79
2023/03/01 00:44:45;;;;;;;9.18;5.78;;;;;;;;;;345305;28;832;-79
2023/03/01 00:44:56;;;;;;;8.90;5.70;;;;;;;;;;345534;28;867;-79
2023/03/01 00:45:07;;;;;;;8.50;5.22;;;;;;;;;;345440;28;867;-79
2023/03/01 00:45:18;;;;;;;8.30;5.05;;;;;;;;;;344132;28;887;-79
2023/03/01 00:45:29;;;;;;;8.50;5.17;;;;;;;;;;344169;28;1531;-79
2023/03/01 00:45:39;;;;;;;9.77;5.68;;;;;;;;;;343949;28;863;-79
2023/03/01 00:45:50;;;;;;;10.17;5.70;;;;;;;;;;345599;28;859;-79
2023/03/01 00:46:01;;;;;;;10.65;5.72;;;;;;;;;;346701;28;1351;-79
2023/03/01 00:46:14;;;;;;;10.85;5.78;;;;;;;;;;346736;28;1452;-80
2023/03/01 00:46:25;;;;;;;10.93;5.88;;;;;;;;;;345427;28;1456;-79
2023/03/01 00:46:35;;;;;;;10.48;5.85;;;;;;;;;;343999;28;1237;-80
2023/03/01 00:46:46;;;;;;;9.13;5.43;;;;;;;;;;345136;28;1290;-79
2023/03/01 00:46:57;;;;;;;8.18;5.53;;;;;;;;;;346824;28;1552;-79
2023/03/01 00:47:07;;;;;;;7.63;5.10;;;;;;;;;;346774;28;903;-83
2023/03/01 00:47:18;;;;;;;9.05;5.15;;;;;;;;;;348124;28;1397;-79
2023/03/01 00:47:29;;;;;;;9.30;5.38;;;;;;;;;;346880;28;1461;-85
2023/03/01 00:47:39;;;;;;;9.47;5.70;;;;;;;;;;345314;28;914;-79
2023/03/01 00:47:50;;;;;;;8.43;5.47;;;;;;;;;;344022;28;1255;-79
2023/03/01 00:48:01;;;;;;;7.80;5.00;;;;;;;;;;342673;28;1343;-78
2023/03/01 00:48:11;;;;;;;8.50;5.35;;;;;;;;;;342722;28;839;-79
2023/03/01 00:48:21;;;;;;;9.90;5.80;;;;;;;;;;344031;28;1289;-80
2023/03/01 00:48:33;;;;;;;10.07;5.90;;;;;;;;;;344046;28;1406;-78
2023/03/01 00:48:43;;;;;;;9.13;5.57;;;;;;;;;;343859;28;1567;-89
2023/03/01 00:48:54;;;;;;;8.70;5.70;;;;;;;;;;344238;28;827;-79
2023/03/01 00:49:04;;;;;;;9.80;5.95;;;;;;;;;;344050;28;1383;-88
2023/03/01 00:49:15;;;;;;;10.17;5.63;;;;;;;;;;344157;28;899;-79
2023/03/01 00:49:27;;;;;;;9.82;5.32;;;;;;;;;;344060;28;1254;-79
2023/03/01 00:49:38;;;;;;;9.93;5.82;;;;;;;;;;344140;28;895;-79
2023/03/01 00:49:48;;;;;;;9.53;5.73;;;;;;;;;;345252;28;1378;-90
2023/03/01 00:49:58;;;;;;;9.48;5.45;;;;;;;;;;345627;28;871;-78
2023/03/01 00:50:10;;;;;;;9.10;5.03;;;;;;;;;;344039;28;1270;-79
2023/03/01 00:50:21;;;;;;;9.13;5.57;;;;;;;;;;344097;28;1048;-79
2023/03/01 00:50:32;;;;;;;9.18;5.57;;;;;;;;;;345537;28;1431;-79
2023/03/01 00:50:42;;;;;;;9.57;6.05;;;;;;;;;;343870;28;1546;-79
2023/03/01 00:50:53;;;;;;;9.20;5.87;;;;;;;;;;345510;28;1503;-79
2023/03/01 00:51:12;;;;;;;9.23;5.88;;;;;;;;;;345601;28;891;-79
2023/03/01 00:51:25;;;;;;;9.57;5.70;;;;;;;;;;344075;28;1646;-79
2023/03/01 00:51:36;;;;;;;9.75;5.45;;;;;;;;;;346896;28;859;-82
2023/03/01 00:51:46;;;;;;;9.43;5.43;;;;;;;;;;346314;28;906;-79
2023/03/01 00:51:57;;;;;;;8.35;5.18;;;;;;;;;;345385;28;1397;-79
2023/03/01 00:52:07;;;;;;;8.90;5.43;;;;;;;;;;342664;28;1265;-79
2023/03/01 00:52:18;;;;;;;10.18;5.90;;;;;;;;;;342770;28;891;-79
2023/03/01 00:52:29;;;;;;;10.57;6.17;;;;;;;;;;344223;28;894;-87
2023/03/01 00:52:39;;;;;;;10.18;5.95;;;;;;;;;;345377;28;1235;-79
2023/03/01 00:52:54;;;;;;;9.18;5.55;;;;;;;;;;345338;28;871;-79
2023/03/01 00:53:04;;;;;;;9.52;5.45;;;;;;;;;;345424;28;1449;-86
2023/03/01 00:53:15;;;;;;;9.55;5.43;;;;;;;;;;345398;28;847;-80
2023/03/01 00:53:25;;;;;;;8.85;5.20;;;;;;;;;;345514;28;1424;-78
2023/03/01 00:53:36;;;;;;;8.07;4.87;;;;;;;;;;344123;28;1384;-88
2023/03/01 00:53:47;;;;;;;8.65;5.47;;;;;;;;;;343888;28;1394;-79
2023/03/01 00:53:59;;;;;;;10.07;6.00;;;;;;;;;;344241;28;1373;-79
2023/03/01 00:54:09;;;;;;;10.48;6.30;;;;;;;;;;343867;28;1267;-79
2023/03/01 00:54:20;;;;;;;9.87;6.10;;;;;;;;;;342821;28;875;-79
2023/03/01 00:54:31;;;;;;;8.80;5.72;;;;;;;;;;342897;28;859;-79
2023/03/01 00:54:41;;;;;;;8.32;5.13;;;;;;;;;;344080;28;1449;-79
2023/03/01 00:54:52;;;;;;;9.10;5.20;;;;;;;;;;343944;28;1508;-79
2023/03/01 00:55:06;;;;;;;9.10;5.22;;;;;;;;;;344233;28;1264;-78
2023/03/01 00:55:17;;;;;;;9.63;5.70;;;;;;;;;;342754;28;973;-79
2023/03/01 00:55:28;;;;;;;9.70;5.53;;;;;;;;;;344217;28;935;-79
2023/03/01 00:55:38;;;;;;;11.15;6.03;;;;;;;;;;344180;28;974;-79
2023/03/01 00:55:49;;;;;;;9.70;5.38;;;;;;;;;;343913;28;1532;-79
2023/03/01 00:56:00;;;;;;;8.90;4.90;;;;;;;;;;344234;28;867;-79
2023/03/01 00:56:11;;;;;;;8.53;4.63;;;;;;;;;;344024;28;1492;-79
2023/03/01 00:56:22;;;;;;;9.23;5.45;;;;;;;;;;344144;28;832;-79
2023/03/01 00:56:32;;;;;;;10.13;5.77;;;;;;;;;;344069;28;1424;-85
2023/03/01 00:56:43;;;;;;;9.75;5.88;;;;;;;;;;342603;28;805;-79
2023/03/01 00:56:54;;;;;;;9.63;5.80;;;;;;;;;;345401;28;1547;-79
2023/03/01 00:57:04;;;;;;;9.07;5.55;;;;;;;;;;345237;28;1269;-84
2023/03/01 00:57:15;;;;;;;9.77;5.25;;;;;;;;;;345453;28;1208;-79
2023/03/01 00:57:25;;;;;;;9.73;5.03;;;;;;;;;;344148;28;1495;-79
2023/03/01 00:57:36;;;;;;;9.30;5.10;;;;;;;;;;342764;28;1497;-88
2023/03/01 00:57:47;;;;;;;8.90;5.30;;;;;;;;;;345142;28;1300;-79
2023/03/01 00:57:58;;;;;;;8.88;5.18;;;;;;;;;;345598;28;847;-79
2023/03/01 00:58:10;;;;;;;8.80;5.43;;;;;;;;;;345281;28;1373;-79
2023/03/01 00:58:21;;;;;;;10.07;5.45;;;;;;;;;;344032;28;1283;-79
2023/03/01 00:58:31;;;;;;;9.68;5.35;;;;;;;;;;344210;28;844;-79
2023/03/01 00:58:42;;;;;;;9.38;5.22;;;;;;;;;;342667;28;1976;-79
2023/03/01 00:58:52;;;;;;;9.40;5.30;;;;;;;;;;345354;28;828;-79
2023/03/01 00:59:03;;;;;;;10.10;5.50;;;;;;;;;;345500;28;878;-78
2023/03/01 00:59:14;;;;;;;12.25;5.38;;;;;;;;;;345012;28;1424;-79
2023/03/01 00:59:25;;;;;;;10.40;5.10;;;;;;;;;;345525;28;906;-80
2023/03/01 00:59:35;;;;;;;9.93;5.20;;;;;;;;;;344071;28;1582;-84
2023/03/01 00:59:46;;;;;;;7.40;5.20;;;;;;;;;;345317;28;851;-85
2023/03/01 00:59:56;;;;;;;9.82;5.90;;;;;;;;;;345535;28;863;-78
2023/03/01 01:00:09;;;;;;;9.77;5.60;;;;;;;;;;342505;28;1376;-79
2023/03/01 01:00:20;;;;;;;9.57;5.22;;;;;;;;;;345564;28;851;-79
2023/03/01 01:00:30;;;;;;;8.07;4.70;;;;;;;;;;345533;28;796;-79
2023/03/01 01:00:41;;;;;;;8.10;4.97;;;;;;;;;;345528;28;879;-79
2023/03/01 01:00:54;;;;;;;8.82;5.22;;;;;;;;;;345221;28;1511;-79
2023/03/01 01:01:31;;;;;;;8.88;5.35;;;;;;;;;;345427;28;949;-82
2023/03/01 01:01:42;;;;;;;11.10;5.57;;;;;;;;;;345539;28;867;-87
2023/03/01 01:01:53;;;;;;;11.80;5.53;;;;;;;;;;345324;28;871;-78
2023/03/01 01:02:05;;;;;;;11.90;5.50;;;;;;;;;;345623;28;941;-84
2023/03/01 01:02:15;;;;;;;10.52;5.90;;;;;;;;;;345330;28;1401;-79
2023/03/01 01:02:25;;;;;;;8.30;5.47;;;;;;;;;;345425;28;1301;-79
2023/03/01 01:02:36;;;;;;;8.00;4.93;;;;;;;;;;345424;28;1373;-87
2023/03/01 01:02:47;;;;;;;8.07;4.75;;;;;;;;;;342619;28;1611;-79
2023/03/01 01:02:57;;;;;;;9.23;5.10;;;;;;;;;;344224;28;1034;-79
2023/03/01 01:03:08;;;;;;;9.47;5.07;;;;;;;;;;345379;28;1385;-85
2023/03/01 01:03:19;;;;;;;9.30;5.07;;;;;;;;;;345397;28;1510;-79
2023/03/01 01:03:30;;;;;;;9.05;4.93;;;;;;;;;;344001;28;1298;-79
2023/03/01 01:03:40;;;;;;;9.95;5.28;;;;;;;;;;344187;28;828;-79
2023/03/01 01:03:54;;;;;;;9.43;5.07;;;;;;;;;;343899;28;1550;-79
2023/03/01 01:04:07;;;;;;;9.23;4.82;;;;;;;;;;344106;28;929;-84
2023/03/01 01:04:17;;;;;;;9.20;4.85;;;;;;;;;;345469;28;1731;-86
2023/03/01 01:04:28;;;;;;;9.50;5.40;;;;;;;;;;344109;28;1393;-79
2023/03/01 01:04:39;;;;;;;10.73;5.80;;;;;;;;;;344038;28;1409;-79
2023/03/01 01:04:50;;;;;;;11.45;6.63;;;;;;;;;;343799;28;1263;-79
2023/03/01 01:05:01;;;;;;;11.25;6.05;;;;;;;;;;344214;28;828;-79
2023/03/01 01:05:12;;;;;;;10.93;5.45;;;;;;;;;;344025;28;922;-79
2023/03/01 01:05:23;;;;;;;10.23;4.63;;;;;;;;;;345377;28;1249;-79
2023/03/01 01:05:38;;;;;;;9.38;4.57;;;;;;;;;;345485;28;939;-79
2023/03/01 01:05:49;;;;;;;8.05;4.63;;;;;;;;;;345259;28;1385;-79
2023/03/01 01:06:08;;;;;;;8.65;5.20;;;;;;;;;;345613;28;919;-79
2023/03/01 01:06:21;;;;;;;9.82;5.20;;;;;;;;;;344144;28;938;-82
2023/03/01 01:06:36;;;;;;;9.55;4.95;;;;;;;;;;342462;28;1735;-79
2023/03/01 01:06:46;;;;;;;8.18;5.18;;;;;;;;;;342225;28;1469;-79
2023/03/01 01:06:58;;;;;;;8.73;5.40;;;;;;;;;;342888;28;844;-79
2023/03/01 01:07:09;;;;;;;9.40;5.45;;;;;;;;;;343888;28;1446;-79
2023/03/01 01:07:20;;;;;;;8.93;5.20;;;;;;;;;;344224;28;820;-79
2023/03/01 01:07:32;;;;;;;10.23;5.20;;;;;;;;;;345413;28;1354;-79
2023/03/01 01:07:42;;;;;;;11.20;5.38;;;;;;;;;;344056;28;1424;-79
2023/03/01 01:07:53;;;;;;;12.57;5.65;;;;;;;;;;343996;28;820;-79
2023/03/01 01:08:05;;;;;;;10.38;5.25;;;;;;;;;;344153;28;871;-79
2023/03/01 01:08:16;;;;;;;8.63;4.93;;;;;;;;;;344058;28;835;-79
2023/03/01 01:08:27;;;;;;;8.85;5.15;;;;;;;;;;343981;28;910;-78
2023/03/01 01:08:38;;;;;;;8.52;5.22;;;;;;;;;;345323;28;1598;-79
2023/03/01 01:08:49;;;;;;;8.00;5.00;;;;;;;;;;345341;28;926;-79
2023/03/01 01:09:00;;;;;;;7.70;4.90;;;;;;;;;;345460;28;1386;-87
2023/03/01 01:09:18;;;;;;;8.45;5.15;;;;;;;;;;345408;28;933;-79
2023/03/01 01:09:28;;;;;;;7.82;5.43;;;;;;;;;;344158;28;918;-79
2023/03/01 01:09:39;;;;;;;8.27;5.50;;;;;;;;;;344439;28;874;-79
2023/03/01 01:09:49;;;;;;;8.85;5.47;;;;;;;;;;345305;28;562;-79
2023/03/01 01:09:59;;;;;;;8.60;5.30;;;;;;;;;;344129;28;1482;-79
2023/03/01 01:10:16;;;;;;;8.18;5.03;;;;;;;;;;342742;28;816;-80